createdAt,value
2018-08-25T00:00:25.422Z,22.77
2018-08-25T00:03:12.238Z,22.84
2018-08-25T00:05:45.952Z,22.98
2018-08-25T00:08:18.810Z,23.07
2018-08-25T00:10:51.941Z,23.02
2018-08-25T00:13:23.667Z,22.91
2018-08-25T00:15:59.396Z,22.86
2018-08-25T00:18:30.820Z,22.78
2018-08-25T00:21:04.563Z,22.68
2018-08-25T00:23:40.323Z,22.90
2018-08-25T00:26:22.153Z,22.89
2018-08-25T00:29:01.406Z,22.82
2018-08-25T00:31:34.443Z,22.94
2018-08-25T00:34:19.708Z,23.05
2018-08-25T00:36:57.073Z,23.11
2018-08-25T00:39:31.047Z,23.40
2018-08-25T00:42:04.216Z,23.60
2018-08-25T00:44:37.334Z,23.54
2018-08-25T00:47:08.862Z,23.25
2018-08-25T00:49:43.061Z,23.16
2018-08-25T00:52:15.082Z,22.94
2018-08-25T00:54:57.007Z,22.84
2018-08-25T00:57:29.790Z,22.35
2018-08-25T01:00:08.802Z,21.21
2018-08-25T01:02:44.653Z,20.76
2018-08-25T01:05:17.543Z,21.93
2018-08-25T01:07:51.040Z,22.94
2018-08-25T01:10:33.548Z,23.55
2018-08-25T01:13:06.029Z,24.01
2018-08-25T01:15:36.803Z,24.14
2018-08-25T01:18:12.954Z,24.51
2018-08-25T01:20:50.996Z,24.56
2018-08-25T01:23:22.385Z,24.35
2018-08-25T01:25:55.205Z,24.64
2018-08-25T01:28:28.360Z,24.63
2018-08-25T01:31:01.130Z,24.67
2018-08-25T01:33:33.313Z,24.86
2018-08-25T01:36:08.660Z,24.78
2018-08-25T01:38:41.024Z,24.81
2018-08-25T01:41:17.075Z,24.98
2018-08-25T01:43:50.973Z,24.91
2018-08-25T01:46:23.879Z,25.06
2018-08-25T01:48:59.600Z,23.86
2018-08-25T01:54:15.208Z,24.08
2018-08-25T01:56:48.104Z,24.67
2018-08-25T01:59:21.720Z,24.91
2018-08-25T02:01:58.176Z,25.10
2018-08-25T02:04:32.590Z,25.17
2018-08-25T02:07:06.940Z,25.18
2018-08-25T02:09:40.196Z,25.27
2018-08-25T02:12:13.469Z,24.89
2018-08-25T02:14:48.692Z,24.87
2018-08-25T02:17:26.465Z,24.83
2018-08-25T02:19:57.863Z,24.50
2018-08-25T02:22:39.559Z,24.68
2018-08-25T02:28:14.527Z,24.90
2018-08-25T02:30:48.021Z,24.46
2018-08-25T02:33:21.432Z,24.16
2018-08-25T02:35:55.844Z,23.94
2018-08-25T02:38:35.716Z,23.94
2018-08-25T02:41:16.978Z,23.95
2018-08-25T02:43:49.737Z,23.67
2018-08-25T02:46:23.393Z,23.75
2018-08-25T02:49:06.890Z,23.98
2018-08-25T02:52:01.417Z,23.95
2018-08-25T02:54:34.491Z,24.50
2018-08-25T02:57:09.004Z,24.42
2018-08-25T02:59:52.144Z,24.11
2018-08-25T03:02:24.340Z,24.14
2018-08-25T03:04:58.113Z,24.13
2018-08-25T03:07:35.940Z,24.01
2018-08-25T03:10:11.659Z,23.88
2018-08-25T03:12:42.923Z,23.67
2018-08-25T03:15:23.246Z,23.59
2018-08-25T03:17:55.380Z,23.69
2018-08-25T03:20:32.746Z,24.02
2018-08-25T03:23:04.690Z,23.86
2018-08-25T03:28:36.920Z,24.12
2018-08-25T03:31:08.459Z,23.65
2018-08-25T03:33:42.072Z,23.63
2018-08-25T03:36:12.384Z,23.51
2018-08-25T03:38:46.035Z,22.57
2018-08-25T03:41:21.516Z,23.62
2018-08-25T03:43:58.364Z,23.79
2018-08-25T03:46:28.926Z,24.11
2018-08-25T03:48:59.434Z,24.32
2018-08-25T03:51:31.831Z,24.20
2018-08-25T03:54:12.670Z,23.98
2018-08-25T03:56:50.473Z,24.41
2018-08-25T03:59:26.446Z,24.12
2018-08-25T04:01:57.617Z,23.68
2018-08-25T04:04:30.634Z,23.40
2018-08-25T04:07:02.291Z,23.07
2018-08-25T04:09:34.503Z,23.01
2018-08-25T04:12:06.782Z,23.41
2018-08-25T04:14:39.457Z,23.52
2018-08-25T04:17:12.045Z,23.43
2018-08-25T04:19:42.534Z,23.40
2018-08-25T04:22:18.393Z,23.46
2018-08-25T04:24:52.955Z,23.55
2018-08-25T04:27:43.317Z,23.72
2018-08-25T04:30:20.486Z,23.79
2018-08-25T04:32:52.288Z,23.58
2018-08-25T04:35:26.328Z,23.41
2018-08-25T04:37:57.567Z,23.18
2018-08-25T04:40:34.741Z,23.48
2018-08-25T04:43:05.313Z,23.79
2018-08-25T04:45:45.677Z,23.67
2018-08-25T04:48:19.338Z,24.56
2018-08-25T04:50:56.346Z,23.46
2018-08-25T04:53:33.413Z,22.48
2018-08-25T04:56:07.455Z,22.26
2018-08-25T04:58:38.280Z,22.55
2018-08-25T05:01:11.603Z,22.85
2018-08-25T05:03:44.177Z,22.62
2018-08-25T05:06:20.666Z,22.96
2018-08-25T05:08:57.505Z,22.79
2018-08-25T05:11:30.829Z,23.10
2018-08-25T05:14:03.754Z,23.39
2018-08-25T05:16:35.983Z,23.62
2018-08-25T05:19:11.106Z,24.14
2018-08-25T05:21:42.498Z,24.41
2018-08-25T05:24:19.618Z,24.41
2018-08-25T05:26:51.270Z,24.74
2018-08-25T05:29:24.492Z,24.79
2018-08-25T05:31:58.525Z,24.79
2018-08-25T05:34:34.191Z,25.08
2018-08-25T05:37:08.059Z,25.04
2018-08-25T05:39:41.893Z,24.66
2018-08-25T05:42:18.516Z,24.99
2018-08-25T05:44:54.661Z,24.99
2018-08-25T05:47:33.161Z,25.29
2018-08-25T05:50:07.452Z,25.37
2018-08-25T05:52:38.306Z,25.25
2018-08-25T05:55:15.604Z,25.37
2018-08-25T05:57:54.305Z,24.41
2018-08-25T06:00:32.919Z,24.31
2018-08-25T06:03:07.251Z,24.44
2018-08-25T06:05:43.711Z,24.55
2018-08-25T06:08:20.146Z,24.97
2018-08-25T06:10:53.591Z,25.22
2018-08-25T06:13:32.743Z,25.69
2018-08-25T06:16:07.975Z,25.87
2018-08-25T06:18:40.922Z,26.12
2018-08-25T06:21:15.059Z,26.34
2018-08-25T06:23:46.810Z,26.31
2018-08-25T06:26:21.714Z,26.33
2018-08-25T06:28:52.727Z,26.03
2018-08-25T06:31:24.280Z,26.51
2018-08-25T06:33:59.449Z,26.55
2018-08-25T06:36:45.798Z,26.53
2018-08-25T06:39:16.451Z,26.34
2018-08-25T06:41:52.456Z,25.63
2018-08-25T06:44:31.623Z,25.80
2018-08-25T06:47:05.373Z,26.17
2018-08-25T06:49:39.630Z,25.84
2018-08-25T06:52:19.970Z,26.18
2018-08-25T06:54:51.555Z,26.68
2018-08-25T06:57:23.190Z,26.48
2018-08-25T07:00:03.364Z,26.78
2018-08-25T07:02:37.563Z,26.99
2018-08-25T07:05:13.678Z,26.43
2018-08-25T07:07:46.018Z,25.73
2018-08-25T07:10:20.075Z,26.19
2018-08-25T07:12:54.426Z,26.81
2018-08-25T07:15:31.050Z,26.97
2018-08-25T07:18:07.885Z,27.13
2018-08-25T07:20:45.367Z,27.51
2018-08-25T07:23:18.669Z,27.59
2018-08-25T07:25:56.326Z,27.38
2018-08-25T07:28:29.764Z,27.65
2018-08-25T07:31:08.737Z,27.65
2018-08-25T07:36:33.408Z,28.11
2018-08-25T07:39:05.681Z,28.13
2018-08-25T07:41:40.702Z,28.36
2018-08-25T07:44:11.294Z,28.33
2018-08-25T07:46:47.262Z,28.48
2018-08-25T07:49:20.673Z,28.59
2018-08-25T07:51:54.860Z,28.91
2018-08-25T07:54:27.283Z,29.18
2018-08-25T07:57:06.173Z,29.20
2018-08-25T07:59:40.424Z,29.06
2018-08-25T08:02:16.055Z,28.89
2018-08-25T08:04:56.635Z,29.02
2018-08-25T08:07:28.090Z,29.05
2018-08-25T08:10:04.148Z,29.05
2018-08-25T08:12:37.441Z,29.07
2018-08-25T08:15:12.181Z,29.00
2018-08-25T08:17:47.209Z,28.97
2018-08-25T08:20:24.162Z,29.04
2018-08-25T08:25:38.429Z,28.89
2018-08-25T08:28:18.460Z,28.97
2018-08-25T08:30:50.015Z,28.99
2018-08-25T08:33:20.910Z,28.57
2018-08-25T08:35:54.628Z,28.55
2018-08-25T08:38:29.477Z,28.81
2018-08-25T08:41:00.101Z,28.89
2018-08-25T08:43:35.874Z,29.07
2018-08-25T08:46:12.938Z,29.12
2018-08-25T08:48:52.107Z,29.06
2018-08-25T08:51:26.581Z,28.93
2018-08-25T08:53:59.867Z,28.88
2018-08-25T08:56:37.102Z,29.03
2018-08-25T08:59:12.711Z,29.17
2018-08-25T09:01:46.232Z,29.17
2018-08-25T09:04:21.409Z,29.38
2018-08-25T09:06:53.036Z,29.35
2018-08-25T09:12:29.151Z,29.22
2018-08-25T09:15:05.249Z,29.46
2018-08-25T09:17:40.792Z,29.48
2018-08-25T09:20:16.001Z,29.61
2018-08-25T09:22:52.256Z,29.68
2018-08-25T09:25:35.726Z,29.66
2018-08-25T09:28:10.847Z,29.48
2018-08-25T09:30:45.390Z,29.42
2018-08-25T09:33:18.516Z,29.54
2018-08-25T09:35:51.002Z,29.07
2018-08-25T09:38:23.002Z,29.62
2018-08-25T09:40:55.373Z,29.75
2018-08-25T09:43:29.000Z,29.74
2018-08-25T09:46:05.992Z,29.84
2018-08-25T09:48:38.974Z,29.71
2018-08-25T09:51:12.372Z,29.68
2018-08-25T09:53:47.397Z,29.67
2018-08-25T09:56:19.461Z,29.32
2018-08-25T09:58:55.613Z,29.46
2018-08-25T10:01:36.475Z,29.36
2018-08-25T10:04:09.864Z,29.32
2018-08-25T10:06:40.056Z,29.39
2018-08-25T10:09:16.121Z,29.42
2018-08-25T10:11:48.401Z,29.27
2018-08-25T10:14:22.065Z,29.33
2018-08-25T10:16:53.341Z,29.29
2018-08-25T10:19:26.850Z,29.46
2018-08-25T10:22:04.181Z,29.57
2018-08-25T10:24:41.208Z,29.64
2018-08-25T10:27:15.167Z,29.43
2018-08-25T10:29:49.320Z,29.25
2018-08-25T10:32:27.334Z,29.31
2018-08-25T10:35:03.863Z,29.07
2018-08-25T10:37:36.827Z,29.02
2018-08-25T10:40:07.822Z,28.98
2018-08-25T10:42:41.206Z,28.91
2018-08-25T10:45:17.807Z,29.06
2018-08-25T10:47:50.558Z,29.01
2018-08-25T10:50:20.960Z,29.27
2018-08-25T10:52:56.506Z,29.32
2018-08-25T10:55:31.719Z,29.43
2018-08-25T10:58:07.249Z,29.13
2018-08-25T11:00:45.770Z,29.28
2018-08-25T11:03:24.978Z,29.32
2018-08-25T11:06:01.930Z,29.34
2018-08-25T11:08:34.354Z,29.31
2018-08-25T11:11:05.943Z,28.86
2018-08-25T11:13:40.003Z,29.05
2018-08-25T11:16:14.374Z,29.27
2018-08-25T11:18:45.759Z,29.22
2018-08-25T11:21:16.419Z,29.17
2018-08-25T11:23:54.484Z,29.21
2018-08-25T11:26:34.858Z,29.19
2018-08-25T11:29:06.117Z,28.93
2018-08-25T11:31:40.862Z,29.23
2018-08-25T11:34:13.233Z,29.11
2018-08-25T11:36:49.537Z,29.42
2018-08-25T11:39:24.906Z,29.22
2018-08-25T11:42:00.224Z,29.24
2018-08-25T11:44:31.337Z,29.46
2018-08-25T11:47:14.848Z,29.55
2018-08-25T11:49:52.307Z,29.44
2018-08-25T11:52:26.115Z,29.53
2018-08-25T11:54:59.478Z,29.51
2018-08-25T11:57:33.761Z,28.84
2018-08-25T12:00:09.927Z,29.59
2018-08-25T12:02:40.757Z,29.39
2018-08-25T12:05:13.203Z,29.36
2018-08-25T12:07:46.870Z,29.63
2018-08-25T12:10:26.383Z,29.79
2018-08-25T12:12:59.689Z,29.42
2018-08-25T12:15:39.539Z,29.62
2018-08-25T12:18:14.055Z,29.68
2018-08-25T12:20:46.198Z,29.91
2018-08-25T12:23:22.143Z,30.02
2018-08-25T12:25:58.186Z,30.00
2018-08-25T12:28:38.140Z,29.74
2018-08-25T12:31:17.689Z,29.87
2018-08-25T12:33:54.295Z,30.01
2018-08-25T12:36:28.693Z,29.71
2018-08-25T12:38:59.848Z,29.87
2018-08-25T12:41:33.251Z,29.89
2018-08-25T12:44:08.388Z,30.55
2018-08-25T12:46:41.844Z,31.47
2018-08-25T12:52:09.506Z,33.20
2018-08-25T12:54:43.231Z,34.12
2018-08-25T12:57:19.089Z,34.39
2018-08-25T12:59:52.866Z,35.16
2018-08-25T13:02:24.313Z,33.99
2018-08-25T13:04:59.590Z,34.19
2018-08-25T13:07:34.957Z,34.38
2018-08-25T13:10:06.817Z,33.83
2018-08-25T13:15:25.815Z,33.89
2018-08-25T13:17:57.976Z,34.84
2018-08-25T13:23:10.171Z,34.81
2018-08-25T13:25:46.277Z,34.05
2018-08-25T13:28:25.502Z,34.08
2018-08-25T13:30:57.987Z,35.33
2018-08-25T13:33:34.188Z,34.95
2018-08-25T13:36:07.642Z,34.51
2018-08-25T13:38:42.975Z,34.05
2018-08-25T13:41:14.740Z,34.24
2018-08-25T13:43:50.407Z,34.88
2018-08-25T13:46:24.973Z,35.26
2018-08-25T13:48:56.374Z,35.07
2018-08-25T13:51:27.879Z,34.18
2018-08-25T13:54:02.749Z,34.06
2018-08-25T13:56:34.293Z,34.81
2018-08-25T13:59:07.398Z,34.91
2018-08-25T14:11:20.454Z,34.45
2018-08-25T14:13:56.956Z,33.76
2018-08-25T14:16:34.451Z,33.49
2018-08-25T14:19:06.787Z,34.40
2018-08-25T14:21:40.264Z,34.38
2018-08-25T14:24:13.955Z,33.90
2018-08-25T14:26:45.810Z,34.76
2018-08-25T14:29:17.426Z,34.18
2018-08-25T14:31:50.981Z,35.02
2018-08-25T14:34:23.601Z,34.98
2018-08-25T14:36:54.061Z,35.54
2018-08-25T14:39:30.865Z,35.38
2018-08-25T14:43:12.623Z,34.83
2018-08-25T14:45:53.236Z,35.50
2018-08-25T14:48:23.671Z,35.39
2018-08-25T14:50:57.933Z,34.99
2018-08-25T14:53:29.061Z,35.00
2018-08-25T14:56:02.868Z,35.10
2018-08-25T14:58:37.393Z,35.84
2018-08-25T15:01:13.756Z,36.00
2018-08-25T15:03:48.008Z,35.69
2018-08-25T15:06:24.761Z,35.24
2018-08-25T15:08:56.165Z,35.31
2018-08-25T15:11:32.013Z,34.95
2018-08-25T15:14:07.384Z,35.74
2018-08-25T15:16:40.390Z,35.17
2018-08-25T15:19:19.401Z,34.34
2018-08-25T15:21:48.956Z,35.61
2018-08-25T15:24:18.534Z,35.56
2018-08-25T15:26:52.888Z,35.45
2018-08-25T15:29:27.992Z,35.02
2018-08-25T15:32:01.784Z,35.70
2018-08-25T15:34:39.870Z,34.95
2018-08-25T15:37:11.558Z,35.23
2018-08-25T15:39:47.848Z,34.94
2018-08-25T15:42:21.853Z,34.84
2018-08-25T15:44:54.603Z,35.02
2018-08-25T15:47:32.434Z,34.98
2018-08-25T15:50:04.162Z,34.23
2018-08-25T15:52:40.123Z,33.76
2018-08-25T15:55:17.741Z,33.63
2018-08-25T15:57:50.928Z,33.36
2018-08-25T16:00:25.864Z,32.77
2018-08-25T16:03:01.294Z,32.64
2018-08-25T16:05:41.956Z,32.48
2018-08-25T16:08:14.181Z,32.82
2018-08-25T16:10:46.362Z,32.72
2018-08-25T16:13:20.217Z,31.81
2018-08-25T16:15:52.036Z,31.80
2018-08-25T16:18:25.057Z,31.46
2018-08-25T16:21:02.305Z,31.40
2018-08-25T16:23:33.649Z,31.18
2018-08-25T16:26:08.668Z,30.65
2018-08-25T16:28:41.251Z,30.41
2018-08-25T16:31:11.452Z,29.80
2018-08-25T16:33:45.945Z,29.87
2018-08-25T16:36:19.664Z,29.49
2018-08-25T16:38:56.143Z,29.08
2018-08-25T16:41:28.910Z,28.91
2018-08-25T16:44:01.492Z,28.40
2018-08-25T16:46:35.743Z,28.12
2018-08-25T16:49:12.731Z,28.17
2018-08-25T16:51:51.788Z,27.81
2018-08-25T16:54:32.811Z,27.54
2018-08-25T16:57:03.928Z,27.38
2018-08-25T16:59:35.684Z,27.31
2018-08-25T17:02:08.719Z,27.18
2018-08-25T17:04:41.008Z,26.98
2018-08-25T17:07:15.863Z,26.92
2018-08-25T17:09:48.191Z,26.94
2018-08-25T17:12:20.340Z,26.89
2018-08-25T17:15:10.998Z,26.74
2018-08-25T17:17:42.108Z,26.68
2018-08-25T17:20:16.206Z,26.69
2018-08-25T17:22:47.719Z,26.65
2018-08-25T17:25:20.158Z,26.62
2018-08-25T17:27:50.396Z,26.64
2018-08-25T17:30:23.868Z,26.58
2018-08-25T17:32:57.129Z,26.48
2018-08-25T17:35:30.010Z,26.43
2018-08-25T17:38:03.099Z,26.38
2018-08-25T17:40:41.227Z,26.38
2018-08-25T17:43:16.253Z,26.42
2018-08-25T17:45:47.720Z,26.34
2018-08-25T17:48:20.632Z,26.34
2018-08-25T17:50:51.974Z,26.34
2018-08-25T17:53:27.907Z,26.34
2018-08-25T17:56:01.887Z,26.24
2018-08-25T17:58:36.766Z,26.37
2018-08-25T18:01:18.891Z,26.39
2018-08-25T18:03:52.409Z,26.33
2018-08-25T18:06:23.781Z,26.28
2018-08-25T18:08:55.392Z,26.28
2018-08-25T18:11:31.899Z,26.28
2018-08-25T18:14:13.478Z,26.24
2018-08-25T18:16:48.310Z,26.24
2018-08-25T18:19:18.543Z,26.29
2018-08-25T18:21:54.788Z,26.30
2018-08-25T18:24:27.606Z,26.38
2018-08-25T18:27:02.560Z,26.33
2018-08-25T18:29:36.348Z,26.26
2018-08-25T18:32:08.099Z,26.19
2018-08-25T18:34:44.786Z,26.23
2018-08-25T18:37:19.896Z,26.31
2018-08-25T18:39:52.436Z,26.33
2018-08-25T18:42:25.370Z,26.31
2018-08-25T18:44:56.827Z,26.25
2018-08-25T18:54:29.256Z,26.09
2018-08-25T18:57:01.409Z,26.21
2018-08-25T18:59:33.987Z,26.25
2018-08-25T19:02:05.051Z,26.37
2018-08-25T19:04:38.219Z,26.44
2018-08-25T19:07:10.432Z,26.49
2018-08-25T19:09:42.746Z,26.48
2018-08-25T19:12:13.235Z,26.48
2018-08-25T19:14:44.607Z,26.46
2018-08-25T19:17:15.917Z,25.71
2018-08-25T19:19:51.149Z,26.34
2018-08-25T19:22:22.896Z,26.43
2018-08-25T19:24:54.537Z,26.45
2018-08-25T19:27:31.583Z,26.48
2018-08-25T19:32:42.326Z,26.60
2018-08-25T19:35:12.807Z,26.60
2018-08-25T19:37:44.209Z,26.58
2018-08-25T19:40:18.160Z,26.56
2018-08-25T19:42:50.774Z,26.52
2018-08-25T19:45:24.433Z,26.51
2018-08-25T19:47:56.143Z,26.18
2018-08-25T19:50:30.374Z,26.34
2018-08-25T19:53:01.027Z,26.34
2018-08-25T19:55:34.698Z,26.34
2018-08-25T19:58:05.812Z,26.38
2018-08-25T20:00:37.151Z,26.40
2018-08-25T20:03:10.174Z,26.42
2018-08-25T20:05:41.447Z,26.56
2018-08-25T20:08:13.831Z,26.55
2018-08-25T20:10:47.932Z,26.50
2018-08-25T20:13:18.468Z,26.13
2018-08-25T20:15:49.245Z,25.70
2018-08-25T20:18:19.032Z,25.34
2018-08-25T20:20:48.653Z,25.35
2018-08-25T20:23:22.806Z,25.31
2018-08-25T20:25:53.333Z,25.37
2018-08-25T20:28:25.134Z,25.38
2018-08-25T20:30:58.196Z,25.34
2018-08-25T20:33:34.210Z,25.13
2018-08-25T20:36:04.723Z,24.98
2018-08-25T20:38:42.514Z,24.11
2018-08-25T20:41:12.122Z,24.86
2018-08-25T20:43:46.824Z,24.66
2018-08-25T20:46:23.553Z,24.48
2018-08-25T20:48:55.783Z,24.41
2018-08-25T20:51:28.427Z,24.14
2018-08-25T20:54:00.453Z,23.79
2018-08-25T20:56:34.307Z,23.61
2018-08-25T20:59:08.119Z,23.65
2018-08-25T21:01:40.731Z,23.76
2018-08-25T21:04:11.297Z,24.16
2018-08-25T21:06:42.819Z,24.19
2018-08-25T21:09:18.381Z,23.87
2018-08-25T21:11:50.238Z,24.52
2018-08-25T21:14:24.461Z,24.75
2018-08-25T21:16:59.121Z,24.77
2018-08-25T21:19:33.811Z,24.62
2018-08-25T21:22:06.934Z,24.62
2018-08-25T21:24:43.424Z,24.52
2018-08-25T21:27:14.628Z,24.60
2018-08-25T21:29:49.381Z,24.97
2018-08-25T21:32:21.609Z,25.08
2018-08-25T21:34:53.808Z,24.68
2018-08-25T21:37:26.748Z,24.68
2018-08-25T21:40:00.824Z,24.78
2018-08-25T21:42:31.333Z,24.79
2018-08-25T21:45:04.744Z,24.92
2018-08-25T21:47:35.183Z,24.86
2018-08-25T21:50:04.871Z,24.64
2018-08-25T21:52:34.990Z,24.45
2018-08-25T21:55:08.231Z,24.29
2018-08-25T21:57:38.647Z,24.37
2018-08-25T22:00:09.699Z,24.23
2018-08-25T22:02:43.271Z,24.31
2018-08-25T22:05:24.567Z,24.12
2018-08-25T22:07:57.371Z,24.26
2018-08-25T22:10:31.349Z,24.40
2018-08-25T22:13:01.246Z,24.53
2018-08-25T22:15:36.987Z,24.47
2018-08-25T22:18:11.916Z,23.63
2018-08-25T22:20:58.515Z,24.29
2018-08-25T22:23:31.144Z,24.40
2018-08-25T22:26:02.371Z,24.52
2018-08-25T22:28:34.093Z,24.54
2018-08-25T22:31:06.183Z,24.93
2018-08-25T22:33:40.829Z,24.87
2018-08-25T22:36:11.809Z,24.70
2018-08-25T22:38:42.785Z,25.00
2018-08-25T22:41:13.732Z,24.52
2018-08-25T22:43:44.912Z,24.46
2018-08-25T22:46:19.006Z,24.78
2018-08-25T22:48:52.022Z,25.07
2018-08-25T22:51:22.523Z,25.36
2018-08-25T22:53:55.002Z,25.62
2018-08-25T22:56:32.135Z,25.79
2018-08-25T22:59:01.663Z,25.87
2018-08-25T23:01:34.970Z,25.76
2018-08-25T23:04:05.982Z,25.85
2018-08-25T23:06:50.253Z,25.83
2018-08-25T23:09:21.208Z,25.81
2018-08-25T23:11:52.698Z,25.77
2018-08-25T23:14:26.747Z,25.77
2018-08-25T23:16:59.432Z,25.86
2018-08-25T23:19:35.273Z,25.76
2018-08-25T23:22:06.844Z,25.65
2018-08-25T23:24:41.430Z,25.81
2018-08-25T23:27:12.824Z,25.82
2018-08-25T23:29:44.813Z,25.07
2018-08-25T23:32:19.974Z,24.67
2018-08-25T23:34:52.255Z,23.89
2018-08-25T23:37:24.923Z,23.50
2018-08-25T23:40:00.113Z,23.43
2018-08-25T23:42:33.521Z,23.21
2018-08-25T23:45:05.806Z,23.09
2018-08-25T23:47:39.457Z,22.90
2018-08-25T23:50:12.232Z,23.04
2018-08-25T23:52:41.853Z,23.16
2018-08-25T23:55:17.483Z,23.34
2018-08-25T23:57:47.743Z,23.55
